sensor_id;sensor_type;location;lat;lon;timestamp;temperature;humidity
56298;DHT22;42208;6.376;-10.782;2023-02-11T00:01:33;26.70;99.90
56298;DHT22;42208;6.376;-10.782;2023-02-11T00:04:03;26.60;99.90
56298;DHT22;42208;6.376;-10.782;2023-02-11T00:06:33;26.60;99.90
56298;DHT22;42208;6.376;-10.782;2023-02-11T00:09:02;26.60;99.90
56298;DHT22;42208;6.376;-10.782;2023-02-11T00:11:31;26.60;99.90
56298;DHT22;42208;6.376;-10.782;2023-02-11T00:14:01;26.60;99.90
56298;DHT22;42208;6.376;-10.782;2023-02-11T00:16:30;26.60;99.90
56298;DHT22;42208;6.376;-10.782;2023-02-11T00:19:00;26.60;99.90
56298;DHT22;42208;6.376;-10.782;2023-02-11T00:21:28;26.60;99.90
56298;DHT22;42208;6.376;-10.782;2023-02-11T00:23:57;26.50;99.90
56298;DHT22;42208;6.376;-10.782;2023-02-11T00:26:29;26.50;99.90
56298;DHT22;42208;6.376;-10.782;2023-02-11T00:28:59;26.50;99.90
56298;DHT22;42208;6.376;-10.782;2023-02-11T00:31:28;26.50;99.90
56298;DHT22;42208;6.376;-10.782;2023-02-11T00:33:56;26.50;99.90
56298;DHT22;42208;6.376;-10.782;2023-02-11T00:36:26;26.50;99.90
56298;DHT22;42208;6.376;-10.782;2023-02-11T00:38:56;26.50;99.90
56298;DHT22;42208;6.376;-10.782;2023-02-11T00:41:24;26.40;99.90
56298;DHT22;42208;6.376;-10.782;2023-02-11T00:43:53;26.40;99.90
56298;DHT22;42208;6.376;-10.782;2023-02-11T00:46:22;26.40;99.90
56298;DHT22;42208;6.376;-10.782;2023-02-11T00:48:50;26.40;99.90
56298;DHT22;42208;6.376;-10.782;2023-02-11T00:51:20;26.40;99.90
56298;DHT22;42208;6.376;-10.782;2023-02-11T00:53:50;26.40;99.90
56298;DHT22;42208;6.376;-10.782;2023-02-11T00:56:18;26.40;99.90
56298;DHT22;42208;6.376;-10.782;2023-02-11T00:58:46;26.40;99.90
56298;DHT22;42208;6.376;-10.782;2023-02-11T01:01:16;26.30;99.90
56298;DHT22;42208;6.376;-10.782;2023-02-11T01:03:47;26.30;99.90
56298;DHT22;42208;6.376;-10.782;2023-02-11T01:06:16;26.30;99.90
56298;DHT22;42208;6.376;-10.782;2023-02-11T01:08:45;26.30;99.90
56298;DHT22;42208;6.376;-10.782;2023-02-11T01:11:16;26.30;99.90
56298;DHT22;42208;6.376;-10.782;2023-02-11T01:13:46;26.30;99.90
56298;DHT22;42208;6.376;-10.782;2023-02-11T01:16:15;26.20;99.90
56298;DHT22;42208;6.376;-10.782;2023-02-11T01:18:45;26.20;99.90
56298;DHT22;42208;6.376;-10.782;2023-02-11T01:21:17;26.20;99.90
56298;DHT22;42208;6.376;-10.782;2023-02-11T01:23:45;26.20;99.90
56298;DHT22;42208;6.376;-10.782;2023-02-11T01:26:14;26.20;99.90
56298;DHT22;42208;6.376;-10.782;2023-02-11T01:28:43;26.20;99.90
56298;DHT22;42208;6.376;-10.782;2023-02-11T01:31:11;26.20;99.90
56298;DHT22;42208;6.376;-10.782;2023-02-11T01:33:42;26.20;99.90
56298;DHT22;42208;6.376;-10.782;2023-02-11T01:36:11;26.20;99.90
56298;DHT22;42208;6.376;-10.782;2023-02-11T01:38:40;26.20;99.90
56298;DHT22;42208;6.376;-10.782;2023-02-11T01:41:10;26.10;99.90
56298;DHT22;42208;6.376;-10.782;2023-02-11T01:43:45;26.10;99.90
56298;DHT22;42208;6.376;-10.782;2023-02-11T01:48:58;26.10;99.90
56298;DHT22;42208;6.376;-10.782;2023-02-11T01:51:45;26.10;99.90
56298;DHT22;42208;6.376;-10.782;2023-02-11T01:54:19;26.00;99.90
56298;DHT22;42208;6.376;-10.782;2023-02-11T01:56:52;26.00;99.90
56298;DHT22;42208;6.376;-10.782;2023-02-11T01:59:29;26.10;99.90
56298;DHT22;42208;6.376;-10.782;2023-02-11T02:02:02;26.00;99.90
56298;DHT22;42208;6.376;-10.782;2023-02-11T02:04:37;26.00;99.90
56298;DHT22;42208;6.376;-10.782;2023-02-11T02:07:21;26.00;99.90
56298;DHT22;42208;6.376;-10.782;2023-02-11T02:09:58;26.00;99.90
56298;DHT22;42208;6.376;-10.782;2023-02-11T02:12:28;26.00;99.90
56298;DHT22;42208;6.376;-10.782;2023-02-11T02:15:22;26.00;99.90
56298;DHT22;42208;6.376;-10.782;2023-02-11T02:34:35;26.00;99.90
56298;DHT22;42208;6.376;-10.782;2023-02-11T02:37:27;26.00;99.90
56298;DHT22;42208;6.376;-10.782;2023-02-11T02:39:59;26.00;99.90
56298;DHT22;42208;6.376;-10.782;2023-02-11T02:42:30;26.00;99.90
56298;DHT22;42208;6.376;-10.782;2023-02-11T02:44:59;25.90;99.90
56298;DHT22;42208;6.376;-10.782;2023-02-11T02:47:27;25.90;99.90
56298;DHT22;42208;6.376;-10.782;2023-02-11T02:49:55;25.90;99.90
56298;DHT22;42208;6.376;-10.782;2023-02-11T03:03:54;25.80;99.90
56298;DHT22;42208;6.376;-10.782;2023-02-11T03:06:54;25.80;99.90
56298;DHT22;42208;6.376;-10.782;2023-02-11T03:09:37;25.90;99.90
56298;DHT22;42208;6.376;-10.782;2023-02-11T03:12:09;25.90;99.90
56298;DHT22;42208;6.376;-10.782;2023-02-11T03:14:39;25.80;99.90
56298;DHT22;42208;6.376;-10.782;2023-02-11T03:17:09;25.80;99.90
56298;DHT22;42208;6.376;-10.782;2023-02-11T03:19:40;25.80;99.90
56298;DHT22;42208;6.376;-10.782;2023-02-11T03:22:23;25.80;99.90
56298;DHT22;42208;6.376;-10.782;2023-02-11T03:24:53;25.80;99.90
56298;DHT22;42208;6.376;-10.782;2023-02-11T03:30:20;25.70;99.90
56298;DHT22;42208;6.376;-10.782;2023-02-11T03:32:55;25.70;99.90
56298;DHT22;42208;6.376;-10.782;2023-02-11T03:35:34;25.70;99.90
56298;DHT22;42208;6.376;-10.782;2023-02-11T03:38:20;25.70;99.90
56298;DHT22;42208;6.376;-10.782;2023-02-11T03:40:50;25.70;99.90
56298;DHT22;42208;6.376;-10.782;2023-02-11T03:43:26;25.70;99.90
56298;DHT22;42208;6.376;-10.782;2023-02-11T03:45:56;25.70;99.90
56298;DHT22;42208;6.376;-10.782;2023-02-11T03:48:30;25.70;99.90
56298;DHT22;42208;6.376;-10.782;2023-02-11T03:51:02;25.70;99.90
56298;DHT22;42208;6.376;-10.782;2023-02-11T03:53:33;25.60;99.90
56298;DHT22;42208;6.376;-10.782;2023-02-11T03:56:05;25.70;99.90
56298;DHT22;42208;6.376;-10.782;2023-02-11T03:58:33;25.60;99.90
56298;DHT22;42208;6.376;-10.782;2023-02-11T04:01:01;25.60;99.90
56298;DHT22;42208;6.376;-10.782;2023-02-11T04:03:30;25.60;99.90
56298;DHT22;42208;6.376;-10.782;2023-02-11T04:05:58;25.60;99.90
56298;DHT22;42208;6.376;-10.782;2023-02-11T04:08:26;25.60;99.90
56298;DHT22;42208;6.376;-10.782;2023-02-11T04:10:54;25.60;99.90
56298;DHT22;42208;6.376;-10.782;2023-02-11T04:13:23;25.60;99.90
56298;DHT22;42208;6.376;-10.782;2023-02-11T04:15:51;25.60;99.90
56298;DHT22;42208;6.376;-10.782;2023-02-11T04:18:20;25.60;99.90
56298;DHT22;42208;6.376;-10.782;2023-02-11T04:20:49;25.60;99.90
56298;DHT22;42208;6.376;-10.782;2023-02-11T04:23:17;25.60;99.90
56298;DHT22;42208;6.376;-10.782;2023-02-11T04:25:46;25.60;99.90
56298;DHT22;42208;6.376;-10.782;2023-02-11T04:28:14;25.60;99.90
56298;DHT22;42208;6.376;-10.782;2023-02-11T04:30:42;25.60;99.90
56298;DHT22;42208;6.376;-10.782;2023-02-11T04:33:11;25.60;99.90
56298;DHT22;42208;6.376;-10.782;2023-02-11T04:35:39;25.50;99.90
56298;DHT22;42208;6.376;-10.782;2023-02-11T04:38:07;25.50;99.90
56298;DHT22;42208;6.376;-10.782;2023-02-11T04:40:35;25.40;99.90
56298;DHT22;42208;6.376;-10.782;2023-02-11T04:43:03;25.50;99.90
56298;DHT22;42208;6.376;-10.782;2023-02-11T04:45:32;25.50;99.90
56298;DHT22;42208;6.376;-10.782;2023-02-11T04:48:02;25.50;99.90
56298;DHT22;42208;6.376;-10.782;2023-02-11T04:50:30;25.50;99.90
56298;DHT22;42208;6.376;-10.782;2023-02-11T04:52:59;25.40;99.90
56298;DHT22;42208;6.376;-10.782;2023-02-11T04:55:27;25.40;99.90
56298;DHT22;42208;6.376;-10.782;2023-02-11T04:57:55;25.40;99.90
56298;DHT22;42208;6.376;-10.782;2023-02-11T05:00:23;25.40;99.90
56298;DHT22;42208;6.376;-10.782;2023-02-11T05:02:51;25.40;99.90
56298;DHT22;42208;6.376;-10.782;2023-02-11T05:05:20;25.40;99.90
56298;DHT22;42208;6.376;-10.782;2023-02-11T05:07:48;25.30;99.90
56298;DHT22;42208;6.376;-10.782;2023-02-11T05:10:16;25.30;99.90
56298;DHT22;42208;6.376;-10.782;2023-02-11T05:12:47;25.40;99.90
56298;DHT22;42208;6.376;-10.782;2023-02-11T05:15:15;25.30;99.90
56298;DHT22;42208;6.376;-10.782;2023-02-11T05:17:44;25.40;99.90
56298;DHT22;42208;6.376;-10.782;2023-02-11T05:20:12;25.40;99.90
56298;DHT22;42208;6.376;-10.782;2023-02-11T05:22:40;25.40;99.90
56298;DHT22;42208;6.376;-10.782;2023-02-11T05:25:09;25.30;99.90
56298;DHT22;42208;6.376;-10.782;2023-02-11T05:27:37;25.30;99.90
56298;DHT22;42208;6.376;-10.782;2023-02-11T05:30:06;25.30;99.90
56298;DHT22;42208;6.376;-10.782;2023-02-11T05:32:35;25.40;99.90
56298;DHT22;42208;6.376;-10.782;2023-02-11T05:35:03;25.30;99.90
56298;DHT22;42208;6.376;-10.782;2023-02-11T05:37:32;25.30;99.90
56298;DHT22;42208;6.376;-10.782;2023-02-11T05:40:00;25.40;99.90
56298;DHT22;42208;6.376;-10.782;2023-02-11T05:42:28;25.40;99.90
56298;DHT22;42208;6.376;-10.782;2023-02-11T05:44:56;25.40;99.90
56298;DHT22;42208;6.376;-10.782;2023-02-11T05:47:25;25.40;99.90
56298;DHT22;42208;6.376;-10.782;2023-02-11T05:49:53;25.40;99.90
56298;DHT22;42208;6.376;-10.782;2023-02-11T05:52:22;25.40;99.90
56298;DHT22;42208;6.376;-10.782;2023-02-11T05:54:51;25.40;99.90
56298;DHT22;42208;6.376;-10.782;2023-02-11T05:57:22;25.40;99.90
56298;DHT22;42208;6.376;-10.782;2023-02-11T05:59:50;25.30;99.90
56298;DHT22;42208;6.376;-10.782;2023-02-11T06:02:19;25.30;99.90
56298;DHT22;42208;6.376;-10.782;2023-02-11T06:04:48;25.40;99.90
56298;DHT22;42208;6.376;-10.782;2023-02-11T06:07:16;25.30;99.90
56298;DHT22;42208;6.376;-10.782;2023-02-11T06:09:44;25.30;99.90
56298;DHT22;42208;6.376;-10.782;2023-02-11T06:12:12;25.30;99.90
56298;DHT22;42208;6.376;-10.782;2023-02-11T06:14:41;25.30;99.90
56298;DHT22;42208;6.376;-10.782;2023-02-11T06:17:09;25.40;99.90
56298;DHT22;42208;6.376;-10.782;2023-02-11T06:19:39;25.40;99.90
56298;DHT22;42208;6.376;-10.782;2023-02-11T06:22:08;25.30;99.90
56298;DHT22;42208;6.376;-10.782;2023-02-11T06:24:36;25.40;99.90
56298;DHT22;42208;6.376;-10.782;2023-02-11T06:27:25;25.40;99.90
56298;DHT22;42208;6.376;-10.782;2023-02-11T06:29:53;25.30;99.90
56298;DHT22;42208;6.376;-10.782;2023-02-11T06:32:21;25.30;99.90
56298;DHT22;42208;6.376;-10.782;2023-02-11T06:35:09;25.30;99.90
56298;DHT22;42208;6.376;-10.782;2023-02-11T06:37:40;25.30;99.90
56298;DHT22;42208;6.376;-10.782;2023-02-11T06:40:10;25.30;99.90
56298;DHT22;42208;6.376;-10.782;2023-02-11T06:42:38;25.30;99.90
56298;DHT22;42208;6.376;-10.782;2023-02-11T06:45:07;25.30;99.90
56298;DHT22;42208;6.376;-10.782;2023-02-11T06:47:36;25.30;99.90
56298;DHT22;42208;6.376;-10.782;2023-02-11T06:50:07;25.30;99.90
56298;DHT22;42208;6.376;-10.782;2023-02-11T06:52:35;25.30;99.90
56298;DHT22;42208;6.376;-10.782;2023-02-11T06:55:04;25.30;99.90
56298;DHT22;42208;6.376;-10.782;2023-02-11T06:57:32;25.30;99.90
56298;DHT22;42208;6.376;-10.782;2023-02-11T07:00:00;25.30;99.90
56298;DHT22;42208;6.376;-10.782;2023-02-11T07:02:29;25.30;99.90
56298;DHT22;42208;6.376;-10.782;2023-02-11T07:04:57;25.30;99.90
56298;DHT22;42208;6.376;-10.782;2023-02-11T07:07:26;25.30;99.90
56298;DHT22;42208;6.376;-10.782;2023-02-11T07:11:48;25.30;99.90
56298;DHT22;42208;6.376;-10.782;2023-02-11T07:14:16;25.30;99.90
56298;DHT22;42208;6.376;-10.782;2023-02-11T07:16:45;25.30;99.90
56298;DHT22;42208;6.376;-10.782;2023-02-11T07:19:13;25.30;99.90
56298;DHT22;42208;6.376;-10.782;2023-02-11T07:21:41;25.30;99.90
56298;DHT22;42208;6.376;-10.782;2023-02-11T07:24:10;25.30;99.90
56298;DHT22;42208;6.376;-10.782;2023-02-11T07:26:38;25.30;99.90
56298;DHT22;42208;6.376;-10.782;2023-02-11T07:29:07;25.30;99.90
56298;DHT22;42208;6.376;-10.782;2023-02-11T07:31:35;25.30;99.90
56298;DHT22;42208;6.376;-10.782;2023-02-11T07:34:03;25.30;99.90
56298;DHT22;42208;6.376;-10.782;2023-02-11T07:36:32;25.30;99.90
56298;DHT22;42208;6.376;-10.782;2023-02-11T07:39:00;25.40;99.90
56298;DHT22;42208;6.376;-10.782;2023-02-11T07:41:28;25.40;99.90
56298;DHT22;42208;6.376;-10.782;2023-02-11T07:43:57;25.40;99.90
56298;DHT22;42208;6.376;-10.782;2023-02-11T07:46:29;25.40;99.90
56298;DHT22;42208;6.376;-10.782;2023-02-11T07:49:00;25.40;99.90
56298;DHT22;42208;6.376;-10.782;2023-02-11T07:51:30;25.40;99.90
56298;DHT22;42208;6.376;-10.782;2023-02-11T07:53:59;25.40;99.90
56298;DHT22;42208;6.376;-10.782;2023-02-11T07:56:28;25.50;99.90
56298;DHT22;42208;6.376;-10.782;2023-02-11T07:59:00;25.50;99.90
56298;DHT22;42208;6.376;-10.782;2023-02-11T08:01:29;25.60;99.90
56298;DHT22;42208;6.376;-10.782;2023-02-11T08:03:59;25.60;99.90
56298;DHT22;42208;6.376;-10.782;2023-02-11T08:06:30;25.60;99.90
56298;DHT22;42208;6.376;-10.782;2023-02-11T08:09:04;25.60;99.90
56298;DHT22;42208;6.376;-10.782;2023-02-11T08:11:33;25.70;99.90
56298;DHT22;42208;6.376;-10.782;2023-02-11T08:14:01;25.70;99.90
56298;DHT22;42208;6.376;-10.782;2023-02-11T08:16:32;25.80;99.90
56298;DHT22;42208;6.376;-10.782;2023-02-11T08:19:04;25.80;99.90
56298;DHT22;42208;6.376;-10.782;2023-02-11T08:21:33;25.80;99.90
56298;DHT22;42208;6.376;-10.782;2023-02-11T08:24:01;25.90;99.90
56298;DHT22;42208;6.376;-10.782;2023-02-11T08:26:31;25.90;99.90
56298;DHT22;42208;6.376;-10.782;2023-02-11T08:29:01;26.00;99.90
56298;DHT22;42208;6.376;-10.782;2023-02-11T08:31:34;26.00;99.90
56298;DHT22;42208;6.376;-10.782;2023-02-11T08:34:03;26.00;99.90
56298;DHT22;42208;6.376;-10.782;2023-02-11T08:36:34;26.10;99.90
56298;DHT22;42208;6.376;-10.782;2023-02-11T08:39:14;26.10;99.90
56298;DHT22;42208;6.376;-10.782;2023-02-11T08:41:48;26.10;99.90
56298;DHT22;42208;6.376;-10.782;2023-02-11T08:44:18;26.20;99.90
56298;DHT22;42208;6.376;-10.782;2023-02-11T08:46:47;26.20;99.90
56298;DHT22;42208;6.376;-10.782;2023-02-11T08:49:15;26.20;99.90
56298;DHT22;42208;6.376;-10.782;2023-02-11T08:51:44;26.30;99.90
56298;DHT22;42208;6.376;-10.782;2023-02-11T08:54:13;26.40;99.90
56298;DHT22;42208;6.376;-10.782;2023-02-11T08:56:42;26.50;99.90
56298;DHT22;42208;6.376;-10.782;2023-02-11T08:59:12;26.50;99.90
56298;DHT22;42208;6.376;-10.782;2023-02-11T09:01:41;26.50;99.90
56298;DHT22;42208;6.376;-10.782;2023-02-11T09:04:10;26.50;99.90
56298;DHT22;42208;6.376;-10.782;2023-02-11T09:06:38;26.60;99.90
56298;DHT22;42208;6.376;-10.782;2023-02-11T09:09:11;26.70;99.90
56298;DHT22;42208;6.376;-10.782;2023-02-11T09:11:42;26.70;99.90
56298;DHT22;42208;6.376;-10.782;2023-02-11T09:14:21;26.70;99.90
56298;DHT22;42208;6.376;-10.782;2023-02-11T09:18:36;26.80;99.90
56298;DHT22;42208;6.376;-10.782;2023-02-11T09:21:06;26.90;99.90
56298;DHT22;42208;6.376;-10.782;2023-02-11T09:23:35;27.10;99.90
56298;DHT22;42208;6.376;-10.782;2023-02-11T09:26:08;27.10;99.90
56298;DHT22;42208;6.376;-10.782;2023-02-11T09:28:36;27.10;99.90
56298;DHT22;42208;6.376;-10.782;2023-02-11T09:31:07;27.20;99.90
56298;DHT22;42208;6.376;-10.782;2023-02-11T09:33:37;27.30;99.90
56298;DHT22;42208;6.376;-10.782;2023-02-11T09:36:06;27.30;99.90
56298;DHT22;42208;6.376;-10.782;2023-02-11T09:38:34;27.40;99.90
56298;DHT22;42208;6.376;-10.782;2023-02-11T09:41:03;27.40;99.90
56298;DHT22;42208;6.376;-10.782;2023-02-11T09:43:36;27.50;99.90
56298;DHT22;42208;6.376;-10.782;2023-02-11T09:46:14;27.50;99.90
56298;DHT22;42208;6.376;-10.782;2023-02-11T09:48:45;27.70;99.90
56298;DHT22;42208;6.376;-10.782;2023-02-11T09:51:32;27.70;99.90
56298;DHT22;42208;6.376;-10.782;2023-02-11T09:54:22;27.70;99.90
56298;DHT22;42208;6.376;-10.782;2023-02-11T10:00:32;27.90;99.90
56298;DHT22;42208;6.376;-10.782;2023-02-11T10:09:12;28.10;99.90
56298;DHT22;42208;6.376;-10.782;2023-02-11T10:20:37;28.40;99.90
56298;DHT22;42208;6.376;-10.782;2023-02-11T10:23:27;28.50;99.90
56298;DHT22;42208;6.376;-10.782;2023-02-11T10:25:58;28.60;99.90
56298;DHT22;42208;6.376;-10.782;2023-02-11T10:28:34;28.70;99.90
56298;DHT22;42208;6.376;-10.782;2023-02-11T10:31:22;28.70;99.90
56298;DHT22;42208;6.376;-10.782;2023-02-11T10:34:01;28.80;99.90
56298;DHT22;42208;6.376;-10.782;2023-02-11T10:36:36;28.80;99.90
56298;DHT22;42208;6.376;-10.782;2023-02-11T10:39:22;29.00;99.90
56298;DHT22;42208;6.376;-10.782;2023-02-11T10:41:58;29.00;99.90
56298;DHT22;42208;6.376;-10.782;2023-02-11T10:44:42;29.10;99.90
56298;DHT22;42208;6.376;-10.782;2023-02-11T10:47:24;29.10;99.90
56298;DHT22;42208;6.376;-10.782;2023-02-11T10:49:54;29.20;99.90
56298;DHT22;42208;6.376;-10.782;2023-02-11T10:52:27;29.20;99.90
56298;DHT22;42208;6.376;-10.782;2023-02-11T10:57:41;29.30;99.90
56298;DHT22;42208;6.376;-10.782;2023-02-11T11:00:36;29.30;99.90
56298;DHT22;42208;6.376;-10.782;2023-02-11T11:03:18;29.20;99.90
56298;DHT22;42208;6.376;-10.782;2023-02-11T11:06:01;29.30;99.90
56298;DHT22;42208;6.376;-10.782;2023-02-11T11:08:42;29.30;99.90
56298;DHT22;42208;6.376;-10.782;2023-02-11T11:11:16;29.40;99.90
56298;DHT22;42208;6.376;-10.782;2023-02-11T11:14:01;29.50;99.90
56298;DHT22;42208;6.376;-10.782;2023-02-11T11:16:34;29.40;99.90
56298;DHT22;42208;6.376;-10.782;2023-02-11T11:21:42;29.50;99.90
56298;DHT22;42208;6.376;-10.782;2023-02-11T11:26:53;29.60;99.90
56298;DHT22;42208;6.376;-10.782;2023-02-11T11:29:46;29.70;99.90
56298;DHT22;42208;6.376;-10.782;2023-02-11T11:32:29;29.70;99.90
56298;DHT22;42208;6.376;-10.782;2023-02-11T11:35:03;29.80;99.90
56298;DHT22;42208;6.376;-10.782;2023-02-11T11:37:35;29.80;99.90
56298;DHT22;42208;6.376;-10.782;2023-02-11T11:42:44;30.00;99.90
56298;DHT22;42208;6.376;-10.782;2023-02-11T11:53:38;30.10;99.90
56298;DHT22;42208;6.376;-10.782;2023-02-11T12:04:52;30.10;99.90
56298;DHT22;42208;6.376;-10.782;2023-02-11T12:10:28;30.20;99.90
56298;DHT22;42208;6.376;-10.782;2023-02-11T12:24:53;30.20;99.90
56298;DHT22;42208;6.376;-10.782;2023-02-11T12:33:17;30.00;99.90
56298;DHT22;42208;6.376;-10.782;2023-02-11T12:47:39;30.00;99.90
56298;DHT22;42208;6.376;-10.782;2023-02-11T12:55:48;30.10;99.90
56298;DHT22;42208;6.376;-10.782;2023-02-11T12:58:21;30.10;99.90
56298;DHT22;42208;6.376;-10.782;2023-02-11T13:01:34;30.10;99.90
56298;DHT22;42208;6.376;-10.782;2023-02-11T13:04:20;30.20;99.90
56298;DHT22;42208;6.376;-10.782;2023-02-11T13:07:02;30.30;99.90
56298;DHT22;42208;6.376;-10.782;2023-02-11T13:12:47;30.30;99.90
56298;DHT22;42208;6.376;-10.782;2023-02-11T13:15:17;30.30;99.90
56298;DHT22;42208;6.376;-10.782;2023-02-11T13:17:55;30.30;99.90
56298;DHT22;42208;6.376;-10.782;2023-02-11T13:23:18;30.40;99.90
56298;DHT22;42208;6.376;-10.782;2023-02-11T13:32:06;30.60;99.90
56298;DHT22;42208;6.376;-10.782;2023-02-11T13:37:35;30.60;99.90
56298;DHT22;42208;6.376;-10.782;2023-02-11T13:40:23;30.70;99.90
56298;DHT22;42208;6.376;-10.782;2023-02-11T13:43:03;30.70;99.90
56298;DHT22;42208;6.376;-10.782;2023-02-11T13:45:47;30.70;99.90
56298;DHT22;42208;6.376;-10.782;2023-02-11T13:48:28;30.80;99.90
56298;DHT22;42208;6.376;-10.782;2023-02-11T13:51:07;30.80;99.90
56298;DHT22;42208;6.376;-10.782;2023-02-11T13:53:55;30.90;99.90
56298;DHT22;42208;6.376;-10.782;2023-02-11T13:56:36;30.80;99.90
56298;DHT22;42208;6.376;-10.782;2023-02-11T14:07:32;31.00;99.90
56298;DHT22;42208;6.376;-10.782;2023-02-11T14:10:01;31.00;99.90
56298;DHT22;42208;6.376;-10.782;2023-02-11T14:16:27;30.90;99.90
56298;DHT22;42208;6.376;-10.782;2023-02-11T14:19:05;31.00;99.90
56298;DHT22;42208;6.376;-10.782;2023-02-11T14:21:45;30.90;99.90
56298;DHT22;42208;6.376;-10.782;2023-02-11T14:26:55;31.00;99.90
56298;DHT22;42208;6.376;-10.782;2023-02-11T14:32:41;31.00;99.90
56298;DHT22;42208;6.376;-10.782;2023-02-11T14:35:15;31.10;99.90
56298;DHT22;42208;6.376;-10.782;2023-02-11T14:43:29;31.40;99.90
56298;DHT22;42208;6.376;-10.782;2023-02-11T14:46:00;31.50;99.90
56298;DHT22;42208;6.376;-10.782;2023-02-11T14:48:35;31.50;99.90
56298;DHT22;42208;6.376;-10.782;2023-02-11T14:53:44;31.50;99.90
56298;DHT22;42208;6.376;-10.782;2023-02-11T14:56:19;31.50;99.90
56298;DHT22;42208;6.376;-10.782;2023-02-11T14:58:49;31.50;99.90
56298;DHT22;42208;6.376;-10.782;2023-02-11T15:01:35;31.40;99.90
56298;DHT22;42208;6.376;-10.782;2023-02-11T15:04:05;31.60;99.90
56298;DHT22;42208;6.376;-10.782;2023-02-11T15:08:47;31.70;99.90
56298;DHT22;42208;6.376;-10.782;2023-02-11T15:11:19;31.70;99.90
56298;DHT22;42208;6.376;-10.782;2023-02-11T15:13:48;31.80;99.90
56298;DHT22;42208;6.376;-10.782;2023-02-11T15:16:24;31.80;99.90
56298;DHT22;42208;6.376;-10.782;2023-02-11T15:19:01;31.80;99.90
56298;DHT22;42208;6.376;-10.782;2023-02-11T15:21:32;31.80;99.90
56298;DHT22;42208;6.376;-10.782;2023-02-11T15:24:04;31.90;99.90
56298;DHT22;42208;6.376;-10.782;2023-02-11T15:26:33;32.10;99.90
56298;DHT22;42208;6.376;-10.782;2023-02-11T15:29:01;32.20;99.90
56298;DHT22;42208;6.376;-10.782;2023-02-11T15:31:30;32.20;99.90
56298;DHT22;42208;6.376;-10.782;2023-02-11T15:34:07;32.10;99.90
56298;DHT22;42208;6.376;-10.782;2023-02-11T15:36:36;32.20;99.90
56298;DHT22;42208;6.376;-10.782;2023-02-11T15:39:40;32.20;99.90
56298;DHT22;42208;6.376;-10.782;2023-02-11T15:42:25;32.20;99.90
56298;DHT22;42208;6.376;-10.782;2023-02-11T15:47:57;32.40;99.90
56298;DHT22;42208;6.376;-10.782;2023-02-11T15:50:29;32.30;99.90
56298;DHT22;42208;6.376;-10.782;2023-02-11T15:53:02;32.40;99.90
56298;DHT22;42208;6.376;-10.782;2023-02-11T15:55:30;32.30;99.90
56298;DHT22;42208;6.376;-10.782;2023-02-11T15:58:00;32.50;99.90
56298;DHT22;42208;6.376;-10.782;2023-02-11T16:00:34;32.60;99.90
56298;DHT22;42208;6.376;-10.782;2023-02-11T16:03:04;32.70;99.90
56298;DHT22;42208;6.376;-10.782;2023-02-11T16:05:36;32.70;99.90
56298;DHT22;42208;6.376;-10.782;2023-02-11T16:08:26;32.90;99.90
56298;DHT22;42208;6.376;-10.782;2023-02-11T16:13:23;33.00;99.90
56298;DHT22;42208;6.376;-10.782;2023-02-11T16:15:56;32.80;99.90
56298;DHT22;42208;6.376;-10.782;2023-02-11T16:18:34;32.50;99.90
56298;DHT22;42208;6.376;-10.782;2023-02-11T16:21:14;32.60;99.90
56298;DHT22;42208;6.376;-10.782;2023-02-11T16:23:53;32.50;99.90
56298;DHT22;42208;6.376;-10.782;2023-02-11T16:26:37;32.60;99.90
56298;DHT22;42208;6.376;-10.782;2023-02-11T16:29:23;32.40;99.90
56298;DHT22;42208;6.376;-10.782;2023-02-11T16:31:53;32.40;99.90
56298;DHT22;42208;6.376;-10.782;2023-02-11T16:34:31;32.50;99.90
56298;DHT22;42208;6.376;-10.782;2023-02-11T16:37:03;32.80;99.90
56298;DHT22;42208;6.376;-10.782;2023-02-11T16:39:32;32.80;99.90
56298;DHT22;42208;6.376;-10.782;2023-02-11T16:54:55;32.80;99.90
56298;DHT22;42208;6.376;-10.782;2023-02-11T16:57:24;32.80;99.90
56298;DHT22;42208;6.376;-10.782;2023-02-11T16:59:56;32.80;99.90
56298;DHT22;42208;6.376;-10.782;2023-02-11T17:02:35;32.80;99.90
56298;DHT22;42208;6.376;-10.782;2023-02-11T17:05:07;32.80;99.90
56298;DHT22;42208;6.376;-10.782;2023-02-11T17:07:42;32.90;99.90
56298;DHT22;42208;6.376;-10.782;2023-02-11T17:10:19;32.80;99.90
56298;DHT22;42208;6.376;-10.782;2023-02-11T17:12:48;33.00;99.90
56298;DHT22;42208;6.376;-10.782;2023-02-11T17:15:17;33.00;99.90
56298;DHT22;42208;6.376;-10.782;2023-02-11T17:17:45;32.90;99.90
56298;DHT22;42208;6.376;-10.782;2023-02-11T17:20:14;33.20;99.90
56298;DHT22;42208;6.376;-10.782;2023-02-11T17:22:42;33.00;99.90
56298;DHT22;42208;6.376;-10.782;2023-02-11T17:25:11;33.00;99.90
56298;DHT22;42208;6.376;-10.782;2023-02-11T17:27:39;32.60;99.90
56298;DHT22;42208;6.376;-10.782;2023-02-11T17:30:09;32.50;99.90
56298;DHT22;42208;6.376;-10.782;2023-02-11T17:32:38;32.40;99.90
56298;DHT22;42208;6.376;-10.782;2023-02-11T17:35:06;32.40;99.90
56298;DHT22;42208;6.376;-10.782;2023-02-11T17:37:34;32.10;99.90
56298;DHT22;42208;6.376;-10.782;2023-02-11T17:40:03;32.00;99.90
56298;DHT22;42208;6.376;-10.782;2023-02-11T17:42:31;31.90;99.90
56298;DHT22;42208;6.376;-10.782;2023-02-11T17:44:59;31.60;99.90
56298;DHT22;42208;6.376;-10.782;2023-02-11T17:47:28;31.60;99.90
56298;DHT22;42208;6.376;-10.782;2023-02-11T17:49:57;31.50;99.90
56298;DHT22;42208;6.376;-10.782;2023-02-11T17:52:25;31.40;99.90
56298;DHT22;42208;6.376;-10.782;2023-02-11T17:54:54;31.10;99.90
56298;DHT22;42208;6.376;-10.782;2023-02-11T17:57:22;31.20;99.90
56298;DHT22;42208;6.376;-10.782;2023-02-11T17:59:50;31.20;99.90
56298;DHT22;42208;6.376;-10.782;2023-02-11T18:02:19;31.20;99.90
56298;DHT22;42208;6.376;-10.782;2023-02-11T18:04:47;31.30;99.90
56298;DHT22;42208;6.376;-10.782;2023-02-11T18:07:15;31.20;99.90
56298;DHT22;42208;6.376;-10.782;2023-02-11T18:09:43;31.10;99.90
56298;DHT22;42208;6.376;-10.782;2023-02-11T18:12:12;30.90;99.90
56298;DHT22;42208;6.376;-10.782;2023-02-11T18:14:40;30.70;99.90
56298;DHT22;42208;6.376;-10.782;2023-02-11T18:17:08;30.60;99.90
56298;DHT22;42208;6.376;-10.782;2023-02-11T18:19:37;30.60;99.90
56298;DHT22;42208;6.376;-10.782;2023-02-11T18:22:05;30.60;99.90
56298;DHT22;42208;6.376;-10.782;2023-02-11T18:24:33;30.50;99.90
56298;DHT22;42208;6.376;-10.782;2023-02-11T18:27:02;30.40;99.90
56298;DHT22;42208;6.376;-10.782;2023-02-11T18:29:30;30.40;99.90
56298;DHT22;42208;6.376;-10.782;2023-02-11T18:31:58;30.30;99.90
56298;DHT22;42208;6.376;-10.782;2023-02-11T18:34:27;30.20;99.90
56298;DHT22;42208;6.376;-10.782;2023-02-11T18:36:55;29.90;99.90
56298;DHT22;42208;6.376;-10.782;2023-02-11T18:39:23;29.90;99.90
56298;DHT22;42208;6.376;-10.782;2023-02-11T18:41:55;29.90;99.90
56298;DHT22;42208;6.376;-10.782;2023-02-11T18:44:23;29.90;99.90
56298;DHT22;42208;6.376;-10.782;2023-02-11T18:46:52;29.90;99.90
56298;DHT22;42208;6.376;-10.782;2023-02-11T18:49:21;29.80;99.90